Ossian, IA (52161)

12:15 PM CST on January 28, 2015 (GMT -0600)
Spillville Iowa | Change Station
CLOSE
Current Station
Personal Weather Station
Location: Fort Atkinson, IA
Elevation: 1129 ft
Nearby Weather Stations
Active Advisory: Special Statement

Elev 1129 ft 43.17 °N, 91.97 °W | Updated 13 minutes ago

Fog
Fog
32.5 °F
Feels Like 26 °F
N
7.0
Wind Variable Wind from East
Gusts 16.0 mph

Today
High -- | Low -- °F
--% Chance of Precip.
Yesterday
High -- | Low -- °F
Precip. -- in
7:26 AM 5:13 PM
Waxing Gibbous, 66% visible
Pressure 29.97 in
Visibility 6.0 miles
Clouds Few 900 ft
Overcast 1300 ft
Windchill 26 °F
Dew Point 29 °F
Humidity 87%
Rainfall 0.00 in
Snow Depth Not available.
UV 1 out of 12
Pollen .10 out of 12
Air Quality Not available.
Flu Activity Not available.
METAR KDEH 281755Z AUTO 15011G19KT 6SM BR FEW009 OVC013 M00/M02 A2997 RMK AO2

More Conditions Fewer Conditions

Pressure 29.97 in
Visibility 6.0 miles
Clouds Few 900 ft
Overcast 1300 ft
Windchill 26 °F
Dew Point 29 °F
Humidity 87%
Rainfall 0.00 in
Snow Depth Not available.
UV 1 out of 12
Pollen .10 out of 12
Air Quality Not available.
Flu Activity Not available.
METAR KDEH 281755Z AUTO 15011G19KT 6SM BR FEW009 OVC013 M00/M02 A2997 RMK AO2

More Conditions Fewer Conditions

10-Day Weather Forecast

Almanac

Astronomy

Jan. 28, 2015 Rise Set
Actual Time
Civil Twilight
Nautical Twilight
Astronomical Twilight
Moon
Length of Visible Light
Length of Day
Tomorrow will be .
, % of the Moon is Illuminated

Today's Extremes

State Highs State Lows

Community

WunderPhotos

Upload Photos

1,791,237 photos uploaded!

WunderBlogs® & News

Nearby

Air Quality

  Air Quality AQ Index Pollutant
Not available.

Snow Depth

Station Depth Elevation

Earthquake Activity

City Distance Mag. Time & Date
Minimum magnitude displayed is 2.5.

Coastal Water Temperatures

Place Temperature

Nearby Weather Stations